sensor_id;sensor_type;location;lat;lon;timestamp;P1;durP1;ratioP1;P2;durP2;ratioP2
10509;SDS011;5303;53.266;10.410;2022-12-18T00:00:41;25.20;;;14.43;;
10509;SDS011;5303;53.266;10.410;2022-12-18T00:03:08;20.83;;;14.00;;
10509;SDS011;5303;53.266;10.410;2022-12-18T00:05:33;22.30;;;14.17;;
10509;SDS011;5303;53.266;10.410;2022-12-18T00:07:58;21.93;;;13.07;;
10509;SDS011;5303;53.266;10.410;2022-12-18T00:10:24;22.80;;;13.30;;
10509;SDS011;5303;53.266;10.410;2022-12-18T00:12:49;21.57;;;13.53;;
10509;SDS011;5303;53.266;10.410;2022-12-18T00:15:15;23.30;;;13.27;;
10509;SDS011;5303;53.266;10.410;2022-12-18T00:17:40;22.23;;;13.20;;
10509;SDS011;5303;53.266;10.410;2022-12-18T00:20:05;23.03;;;13.33;;
10509;SDS011;5303;53.266;10.410;2022-12-18T00:22:31;20.43;;;13.53;;
10509;SDS011;5303;53.266;10.410;2022-12-18T00:24:56;22.63;;;13.60;;
10509;SDS011;5303;53.266;10.410;2022-12-18T00:27:22;20.27;;;13.23;;
10509;SDS011;5303;53.266;10.410;2022-12-18T00:29:47;21.37;;;13.17;;
10509;SDS011;5303;53.266;10.410;2022-12-18T00:32:13;22.13;;;12.57;;
10509;SDS011;5303;53.266;10.410;2022-12-18T00:34:38;20.87;;;13.23;;
10509;SDS011;5303;53.266;10.410;2022-12-18T00:37:03;22.73;;;13.07;;
10509;SDS011;5303;53.266;10.410;2022-12-18T00:39:28;20.83;;;12.73;;
10509;SDS011;5303;53.266;10.410;2022-12-18T00:41:54;25.13;;;13.83;;
10509;SDS011;5303;53.266;10.410;2022-12-18T00:44:37;24.00;;;13.93;;
10509;SDS011;5303;53.266;10.410;2022-12-18T00:47:03;24.60;;;14.37;;
10509;SDS011;5303;53.266;10.410;2022-12-18T00:49:28;24.13;;;14.00;;
10509;SDS011;5303;53.266;10.410;2022-12-18T00:51:53;24.63;;;14.13;;
10509;SDS011;5303;53.266;10.410;2022-12-18T00:54:19;26.43;;;16.03;;
10509;SDS011;5303;53.266;10.410;2022-12-18T00:56:44;29.27;;;16.43;;
10509;SDS011;5303;53.266;10.410;2022-12-18T00:59:09;26.43;;;15.97;;
10509;SDS011;5303;53.266;10.410;2022-12-18T01:01:34;27.20;;;16.87;;
10509;SDS011;5303;53.266;10.410;2022-12-18T01:04:00;28.43;;;16.50;;
10509;SDS011;5303;53.266;10.410;2022-12-18T01:06:27;24.63;;;15.40;;
10509;SDS011;5303;53.266;10.410;2022-12-18T01:08:53;29.53;;;14.47;;
10509;SDS011;5303;53.266;10.410;2022-12-18T01:11:18;29.00;;;15.57;;
10509;SDS011;5303;53.266;10.410;2022-12-18T01:13:45;26.80;;;15.33;;
10509;SDS011;5303;53.266;10.410;2022-12-18T01:16:11;24.57;;;14.43;;
10509;SDS011;5303;53.266;10.410;2022-12-18T01:18:38;24.83;;;14.03;;
10509;SDS011;5303;53.266;10.410;2022-12-18T01:21:10;21.90;;;13.60;;
10509;SDS011;5303;53.266;10.410;2022-12-18T01:23:37;22.53;;;13.77;;
10509;SDS011;5303;53.266;10.410;2022-12-18T01:26:06;24.77;;;14.17;;
10509;SDS011;5303;53.266;10.410;2022-12-18T01:28:33;25.23;;;14.10;;
10509;SDS011;5303;53.266;10.410;2022-12-18T01:31:08;26.53;;;14.30;;
10509;SDS011;5303;53.266;10.410;2022-12-18T01:33:37;26.33;;;14.10;;
10509;SDS011;5303;53.266;10.410;2022-12-18T01:36:03;20.37;;;13.53;;
10509;SDS011;5303;53.266;10.410;2022-12-18T01:38:28;24.30;;;14.07;;
10509;SDS011;5303;53.266;10.410;2022-12-18T01:40:57;25.57;;;14.10;;
10509;SDS011;5303;53.266;10.410;2022-12-18T01:43:40;21.00;;;13.97;;
10509;SDS011;5303;53.266;10.410;2022-12-18T01:46:09;26.73;;;14.30;;
10509;SDS011;5303;53.266;10.410;2022-12-18T01:48:35;21.30;;;13.43;;
10509;SDS011;5303;53.266;10.410;2022-12-18T01:51:00;23.00;;;13.67;;
10509;SDS011;5303;53.266;10.410;2022-12-18T01:53:26;24.47;;;14.60;;
10509;SDS011;5303;53.266;10.410;2022-12-18T01:55:53;21.97;;;14.73;;
10509;SDS011;5303;53.266;10.410;2022-12-18T01:58:21;26.73;;;13.73;;
10509;SDS011;5303;53.266;10.410;2022-12-18T02:00:58;22.43;;;14.80;;
10509;SDS011;5303;53.266;10.410;2022-12-18T02:03:23;24.07;;;14.20;;
10509;SDS011;5303;53.266;10.410;2022-12-18T02:05:50;22.33;;;13.60;;
10509;SDS011;5303;53.266;10.410;2022-12-18T02:08:40;24.73;;;14.13;;
10509;SDS011;5303;53.266;10.410;2022-12-18T02:14:17;22.27;;;13.97;;
10509;SDS011;5303;53.266;10.410;2022-12-18T02:16:54;22.30;;;13.57;;
10509;SDS011;5303;53.266;10.410;2022-12-18T02:22:21;23.43;;;14.33;;
10509;SDS011;5303;53.266;10.410;2022-12-18T02:27:45;24.80;;;14.20;;
10509;SDS011;5303;53.266;10.410;2022-12-18T02:30:13;25.80;;;13.77;;
10509;SDS011;5303;53.266;10.410;2022-12-18T02:32:41;22.60;;;14.70;;
10509;SDS011;5303;53.266;10.410;2022-12-18T02:35:12;26.30;;;15.07;;
10509;SDS011;5303;53.266;10.410;2022-12-18T02:37:42;29.20;;;15.87;;
10509;SDS011;5303;53.266;10.410;2022-12-18T02:40:11;25.93;;;15.67;;
10509;SDS011;5303;53.266;10.410;2022-12-18T02:42:38;24.13;;;15.60;;
10509;SDS011;5303;53.266;10.410;2022-12-18T02:45:04;24.90;;;15.17;;
10509;SDS011;5303;53.266;10.410;2022-12-18T02:47:31;25.97;;;15.83;;
10509;SDS011;5303;53.266;10.410;2022-12-18T02:50:05;27.17;;;15.43;;
10509;SDS011;5303;53.266;10.410;2022-12-18T02:57:58;27.10;;;15.47;;
10509;SDS011;5303;53.266;10.410;2022-12-18T03:00:33;23.60;;;14.73;;
10509;SDS011;5303;53.266;10.410;2022-12-18T03:03:10;28.03;;;15.97;;
10509;SDS011;5303;53.266;10.410;2022-12-18T03:05:48;27.47;;;14.93;;
10509;SDS011;5303;53.266;10.410;2022-12-18T03:08:18;24.43;;;14.30;;
10509;SDS011;5303;53.266;10.410;2022-12-18T03:10:49;25.63;;;15.17;;
10509;SDS011;5303;53.266;10.410;2022-12-18T03:13:28;25.40;;;15.30;;
10509;SDS011;5303;53.266;10.410;2022-12-18T03:15:58;28.87;;;15.17;;
10509;SDS011;5303;53.266;10.410;2022-12-18T03:18:30;26.83;;;15.17;;
10509;SDS011;5303;53.266;10.410;2022-12-18T03:21:04;27.00;;;15.70;;
10509;SDS011;5303;53.266;10.410;2022-12-18T03:23:34;25.53;;;15.30;;
10509;SDS011;5303;53.266;10.410;2022-12-18T03:26:05;23.87;;;14.60;;
10509;SDS011;5303;53.266;10.410;2022-12-18T03:28:35;25.73;;;15.80;;
10509;SDS011;5303;53.266;10.410;2022-12-18T03:31:04;26.43;;;15.87;;
10509;SDS011;5303;53.266;10.410;2022-12-18T03:33:41;27.80;;;15.53;;
10509;SDS011;5303;53.266;10.410;2022-12-18T03:36:10;28.67;;;16.67;;
10509;SDS011;5303;53.266;10.410;2022-12-18T03:38:36;33.47;;;16.73;;
10509;SDS011;5303;53.266;10.410;2022-12-18T03:41:24;23.23;;;14.60;;
10509;SDS011;5303;53.266;10.410;2022-12-18T03:43:54;26.60;;;15.50;;
10509;SDS011;5303;53.266;10.410;2022-12-18T03:46:41;27.60;;;15.23;;
10509;SDS011;5303;53.266;10.410;2022-12-18T03:55:07;25.40;;;16.10;;
10509;SDS011;5303;53.266;10.410;2022-12-18T03:57:34;28.00;;;15.17;;
10509;SDS011;5303;53.266;10.410;2022-12-18T04:00:03;26.13;;;14.33;;
10509;SDS011;5303;53.266;10.410;2022-12-18T04:02:40;23.30;;;14.60;;
10509;SDS011;5303;53.266;10.410;2022-12-18T04:05:14;30.30;;;16.43;;
10509;SDS011;5303;53.266;10.410;2022-12-18T04:07:40;27.40;;;15.80;;
10509;SDS011;5303;53.266;10.410;2022-12-18T04:10:08;26.87;;;15.43;;
10509;SDS011;5303;53.266;10.410;2022-12-18T04:12:37;28.27;;;15.33;;
10509;SDS011;5303;53.266;10.410;2022-12-18T04:15:02;26.00;;;15.97;;
10509;SDS011;5303;53.266;10.410;2022-12-18T04:17:28;26.83;;;14.93;;
10509;SDS011;5303;53.266;10.410;2022-12-18T04:19:53;23.77;;;16.20;;
10509;SDS011;5303;53.266;10.410;2022-12-18T04:22:18;31.40;;;17.03;;
10509;SDS011;5303;53.266;10.410;2022-12-18T04:24:44;30.83;;;16.30;;
10509;SDS011;5303;53.266;10.410;2022-12-18T04:27:09;26.20;;;16.03;;
10509;SDS011;5303;53.266;10.410;2022-12-18T04:29:34;28.53;;;16.03;;
10509;SDS011;5303;53.266;10.410;2022-12-18T04:31:59;27.83;;;15.90;;
10509;SDS011;5303;53.266;10.410;2022-12-18T04:34:25;27.57;;;15.70;;
10509;SDS011;5303;53.266;10.410;2022-12-18T04:36:50;33.80;;;16.30;;
10509;SDS011;5303;53.266;10.410;2022-12-18T04:39:16;32.47;;;16.37;;
10509;SDS011;5303;53.266;10.410;2022-12-18T04:41:41;29.20;;;16.20;;
10509;SDS011;5303;53.266;10.410;2022-12-18T04:44:06;31.00;;;16.97;;
10509;SDS011;5303;53.266;10.410;2022-12-18T04:46:32;30.43;;;16.43;;
10509;SDS011;5303;53.266;10.410;2022-12-18T04:48:57;27.17;;;16.43;;
10509;SDS011;5303;53.266;10.410;2022-12-18T04:51:22;30.77;;;15.90;;
10509;SDS011;5303;53.266;10.410;2022-12-18T04:53:48;28.97;;;16.40;;
10509;SDS011;5303;53.266;10.410;2022-12-18T04:56:14;26.17;;;14.90;;
10509;SDS011;5303;53.266;10.410;2022-12-18T04:58:40;29.93;;;15.90;;
10509;SDS011;5303;53.266;10.410;2022-12-18T05:01:07;26.57;;;16.10;;
10509;SDS011;5303;53.266;10.410;2022-12-18T05:03:33;25.47;;;14.67;;
10509;SDS011;5303;53.266;10.410;2022-12-18T05:05:59;28.93;;;16.10;;
10509;SDS011;5303;53.266;10.410;2022-12-18T05:08:25;24.67;;;14.40;;
10509;SDS011;5303;53.266;10.410;2022-12-18T05:13:49;29.73;;;15.87;;
10509;SDS011;5303;53.266;10.410;2022-12-18T05:16:14;27.10;;;15.67;;
10509;SDS011;5303;53.266;10.410;2022-12-18T05:18:39;25.73;;;14.90;;
10509;SDS011;5303;53.266;10.410;2022-12-18T05:21:05;24.67;;;14.30;;
10509;SDS011;5303;53.266;10.410;2022-12-18T05:23:31;33.67;;;15.70;;
10509;SDS011;5303;53.266;10.410;2022-12-18T05:25:58;26.70;;;14.87;;
10509;SDS011;5303;53.266;10.410;2022-12-18T05:28:25;25.93;;;15.27;;
10509;SDS011;5303;53.266;10.410;2022-12-18T05:30:53;29.23;;;15.43;;
10509;SDS011;5303;53.266;10.410;2022-12-18T05:33:20;25.50;;;15.77;;
10509;SDS011;5303;53.266;10.410;2022-12-18T05:35:51;33.63;;;15.53;;
10509;SDS011;5303;53.266;10.410;2022-12-18T05:38:17;26.33;;;15.60;;
10509;SDS011;5303;53.266;10.410;2022-12-18T05:40:44;29.77;;;16.47;;
10509;SDS011;5303;53.266;10.410;2022-12-18T05:43:09;26.67;;;16.63;;
10509;SDS011;5303;53.266;10.410;2022-12-18T05:45:38;29.73;;;16.80;;
10509;SDS011;5303;53.266;10.410;2022-12-18T05:48:04;24.50;;;15.07;;
10509;SDS011;5303;53.266;10.410;2022-12-18T05:50:30;32.47;;;16.60;;
10509;SDS011;5303;53.266;10.410;2022-12-18T05:52:55;30.07;;;16.53;;
10509;SDS011;5303;53.266;10.410;2022-12-18T05:55:20;29.83;;;15.73;;
10509;SDS011;5303;53.266;10.410;2022-12-18T05:57:46;27.40;;;15.90;;
10509;SDS011;5303;53.266;10.410;2022-12-18T06:00:11;31.53;;;16.97;;
10509;SDS011;5303;53.266;10.410;2022-12-18T06:02:37;28.07;;;15.60;;
10509;SDS011;5303;53.266;10.410;2022-12-18T06:05:03;31.43;;;16.30;;
10509;SDS011;5303;53.266;10.410;2022-12-18T06:07:28;29.63;;;15.53;;
10509;SDS011;5303;53.266;10.410;2022-12-18T06:09:54;27.93;;;16.30;;
10509;SDS011;5303;53.266;10.410;2022-12-18T06:12:19;30.20;;;16.63;;
10509;SDS011;5303;53.266;10.410;2022-12-18T06:14:44;30.43;;;16.37;;
10509;SDS011;5303;53.266;10.410;2022-12-18T06:17:09;31.73;;;16.77;;
10509;SDS011;5303;53.266;10.410;2022-12-18T06:19:35;29.03;;;16.53;;
10509;SDS011;5303;53.266;10.410;2022-12-18T06:22:00;28.17;;;15.80;;
10509;SDS011;5303;53.266;10.410;2022-12-18T06:24:25;33.87;;;15.87;;
10509;SDS011;5303;53.266;10.410;2022-12-18T06:26:51;31.27;;;16.47;;
10509;SDS011;5303;53.266;10.410;2022-12-18T06:29:19;28.87;;;14.90;;
10509;SDS011;5303;53.266;10.410;2022-12-18T06:31:44;29.50;;;14.57;;
10509;SDS011;5303;53.266;10.410;2022-12-18T06:34:09;29.77;;;15.23;;
10509;SDS011;5303;53.266;10.410;2022-12-18T06:36:34;29.63;;;16.23;;
10509;SDS011;5303;53.266;10.410;2022-12-18T06:39:00;30.10;;;16.00;;
10509;SDS011;5303;53.266;10.410;2022-12-18T06:41:25;31.77;;;16.33;;
10509;SDS011;5303;53.266;10.410;2022-12-18T06:43:51;29.23;;;15.80;;
10509;SDS011;5303;53.266;10.410;2022-12-18T06:46:16;29.03;;;14.93;;
10509;SDS011;5303;53.266;10.410;2022-12-18T06:48:42;29.23;;;16.30;;
10509;SDS011;5303;53.266;10.410;2022-12-18T06:51:07;27.77;;;16.33;;
10509;SDS011;5303;53.266;10.410;2022-12-18T06:53:32;30.47;;;16.33;;
10509;SDS011;5303;53.266;10.410;2022-12-18T06:55:59;26.83;;;15.50;;
10509;SDS011;5303;53.266;10.410;2022-12-18T06:58:28;30.90;;;17.07;;
10509;SDS011;5303;53.266;10.410;2022-12-18T07:00:58;34.73;;;16.53;;
10509;SDS011;5303;53.266;10.410;2022-12-18T07:03:25;29.17;;;15.93;;
10509;SDS011;5303;53.266;10.410;2022-12-18T07:05:50;30.27;;;16.37;;
10509;SDS011;5303;53.266;10.410;2022-12-18T07:08:15;26.23;;;15.87;;
10509;SDS011;5303;53.266;10.410;2022-12-18T07:10:41;34.93;;;17.90;;
10509;SDS011;5303;53.266;10.410;2022-12-18T07:13:07;30.60;;;16.80;;
10509;SDS011;5303;53.266;10.410;2022-12-18T07:15:32;31.37;;;16.73;;
10509;SDS011;5303;53.266;10.410;2022-12-18T07:17:58;31.27;;;16.10;;
10509;SDS011;5303;53.266;10.410;2022-12-18T07:20:23;33.70;;;17.00;;
10509;SDS011;5303;53.266;10.410;2022-12-18T07:22:48;30.23;;;17.60;;
10509;SDS011;5303;53.266;10.410;2022-12-18T07:25:13;29.90;;;17.17;;
10509;SDS011;5303;53.266;10.410;2022-12-18T07:27:39;32.77;;;16.83;;
10509;SDS011;5303;53.266;10.410;2022-12-18T07:30:05;33.07;;;16.10;;
10509;SDS011;5303;53.266;10.410;2022-12-18T07:32:30;28.97;;;16.23;;
10509;SDS011;5303;53.266;10.410;2022-12-18T07:34:56;28.33;;;15.90;;
10509;SDS011;5303;53.266;10.410;2022-12-18T07:37:21;30.10;;;17.33;;
10509;SDS011;5303;53.266;10.410;2022-12-18T07:39:46;31.67;;;16.63;;
10509;SDS011;5303;53.266;10.410;2022-12-18T07:42:13;30.03;;;17.03;;
10509;SDS011;5303;53.266;10.410;2022-12-18T07:44:57;28.60;;;16.37;;
10509;SDS011;5303;53.266;10.410;2022-12-18T07:47:23;29.60;;;16.20;;
10509;SDS011;5303;53.266;10.410;2022-12-18T07:49:48;29.33;;;16.27;;
10509;SDS011;5303;53.266;10.410;2022-12-18T07:52:13;32.20;;;16.17;;
10509;SDS011;5303;53.266;10.410;2022-12-18T07:54:39;31.40;;;15.37;;
10509;SDS011;5303;53.266;10.410;2022-12-18T07:57:05;28.60;;;16.30;;
10509;SDS011;5303;53.266;10.410;2022-12-18T07:59:31;31.90;;;16.13;;
10509;SDS011;5303;53.266;10.410;2022-12-18T08:01:56;33.57;;;17.50;;
10509;SDS011;5303;53.266;10.410;2022-12-18T08:04:21;37.97;;;17.97;;
10509;SDS011;5303;53.266;10.410;2022-12-18T08:06:47;33.50;;;17.30;;
10509;SDS011;5303;53.266;10.410;2022-12-18T08:09:12;30.43;;;16.60;;
10509;SDS011;5303;53.266;10.410;2022-12-18T08:11:37;31.47;;;16.47;;
10509;SDS011;5303;53.266;10.410;2022-12-18T08:14:03;31.77;;;17.10;;
10509;SDS011;5303;53.266;10.410;2022-12-18T08:16:28;33.23;;;17.63;;
10509;SDS011;5303;53.266;10.410;2022-12-18T08:18:53;29.87;;;16.13;;
10509;SDS011;5303;53.266;10.410;2022-12-18T08:21:24;31.67;;;16.67;;
10509;SDS011;5303;53.266;10.410;2022-12-18T08:23:52;32.43;;;17.60;;
10509;SDS011;5303;53.266;10.410;2022-12-18T08:26:18;30.80;;;16.17;;
10509;SDS011;5303;53.266;10.410;2022-12-18T08:28:44;28.87;;;16.93;;
10509;SDS011;5303;53.266;10.410;2022-12-18T08:31:10;33.37;;;16.53;;
10509;SDS011;5303;53.266;10.410;2022-12-18T08:33:36;30.67;;;15.90;;
10509;SDS011;5303;53.266;10.410;2022-12-18T08:36:03;34.90;;;17.93;;
10509;SDS011;5303;53.266;10.410;2022-12-18T08:38:29;32.67;;;17.50;;
10509;SDS011;5303;53.266;10.410;2022-12-18T08:41:10;28.70;;;15.27;;
10509;SDS011;5303;53.266;10.410;2022-12-18T08:43:37;30.20;;;15.30;;
10509;SDS011;5303;53.266;10.410;2022-12-18T08:46:21;31.23;;;15.57;;
10509;SDS011;5303;53.266;10.410;2022-12-18T08:48:50;27.97;;;15.93;;
10509;SDS011;5303;53.266;10.410;2022-12-18T08:51:16;30.63;;;16.67;;
10509;SDS011;5303;53.266;10.410;2022-12-18T08:53:42;29.47;;;16.23;;
10509;SDS011;5303;53.266;10.410;2022-12-18T08:56:07;28.70;;;14.77;;
10509;SDS011;5303;53.266;10.410;2022-12-18T08:58:33;27.87;;;14.97;;
10509;SDS011;5303;53.266;10.410;2022-12-18T09:01:05;27.40;;;15.10;;
10509;SDS011;5303;53.266;10.410;2022-12-18T09:03:32;26.90;;;15.17;;
10509;SDS011;5303;53.266;10.410;2022-12-18T09:05:58;28.43;;;15.43;;
10509;SDS011;5303;53.266;10.410;2022-12-18T09:08:24;29.93;;;15.67;;
10509;SDS011;5303;53.266;10.410;2022-12-18T09:10:50;29.00;;;15.33;;
10509;SDS011;5303;53.266;10.410;2022-12-18T09:13:16;31.70;;;16.00;;
10509;SDS011;5303;53.266;10.410;2022-12-18T09:15:43;26.33;;;15.53;;
10509;SDS011;5303;53.266;10.410;2022-12-18T09:18:10;33.13;;;17.37;;
10509;SDS011;5303;53.266;10.410;2022-12-18T09:20:36;31.20;;;17.03;;
10509;SDS011;5303;53.266;10.410;2022-12-18T09:23:02;31.07;;;16.27;;
10509;SDS011;5303;53.266;10.410;2022-12-18T09:25:29;28.30;;;15.47;;
10509;SDS011;5303;53.266;10.410;2022-12-18T09:27:58;28.57;;;14.87;;
10509;SDS011;5303;53.266;10.410;2022-12-18T09:30:26;29.37;;;16.13;;
10509;SDS011;5303;53.266;10.410;2022-12-18T09:32:52;31.10;;;16.33;;
10509;SDS011;5303;53.266;10.410;2022-12-18T09:35:17;32.27;;;17.50;;
10509;SDS011;5303;53.266;10.410;2022-12-18T09:37:42;27.97;;;16.50;;
10509;SDS011;5303;53.266;10.410;2022-12-18T09:40:13;28.53;;;15.90;;
10509;SDS011;5303;53.266;10.410;2022-12-18T09:42:39;27.50;;;15.40;;
10509;SDS011;5303;53.266;10.410;2022-12-18T09:45:07;29.03;;;15.43;;
10509;SDS011;5303;53.266;10.410;2022-12-18T09:47:39;28.50;;;14.67;;
10509;SDS011;5303;53.266;10.410;2022-12-18T09:53:02;28.93;;;15.30;;
10509;SDS011;5303;53.266;10.410;2022-12-18T09:55:42;29.30;;;15.93;;
10509;SDS011;5303;53.266;10.410;2022-12-18T10:00:35;30.77;;;15.73;;
10509;SDS011;5303;53.266;10.410;2022-12-18T10:03:01;27.00;;;15.33;;
10509;SDS011;5303;53.266;10.410;2022-12-18T10:10:46;27.93;;;15.43;;
10509;SDS011;5303;53.266;10.410;2022-12-18T10:19:03;28.33;;;15.80;;
10509;SDS011;5303;53.266;10.410;2022-12-18T10:24:31;28.80;;;16.37;;
10509;SDS011;5303;53.266;10.410;2022-12-18T10:27:11;27.90;;;15.37;;
10509;SDS011;5303;53.266;10.410;2022-12-18T10:29:45;30.07;;;16.43;;
10509;SDS011;5303;53.266;10.410;2022-12-18T10:32:15;31.43;;;17.07;;
10509;SDS011;5303;53.266;10.410;2022-12-18T10:34:49;28.17;;;15.40;;
10509;SDS011;5303;53.266;10.410;2022-12-18T10:37:18;32.07;;;17.07;;
10509;SDS011;5303;53.266;10.410;2022-12-18T10:40:04;33.93;;;16.77;;
10509;SDS011;5303;53.266;10.410;2022-12-18T10:42:33;28.40;;;14.97;;
10509;SDS011;5303;53.266;10.410;2022-12-18T10:45:14;24.43;;;15.60;;
10509;SDS011;5303;53.266;10.410;2022-12-18T10:47:50;26.77;;;15.33;;
10509;SDS011;5303;53.266;10.410;2022-12-18T10:50:34;30.73;;;16.23;;
10509;SDS011;5303;53.266;10.410;2022-12-18T10:53:03;27.00;;;15.60;;
10509;SDS011;5303;53.266;10.410;2022-12-18T10:55:37;32.77;;;16.57;;
10509;SDS011;5303;53.266;10.410;2022-12-18T10:58:21;27.93;;;14.60;;
10509;SDS011;5303;53.266;10.410;2022-12-18T11:06:06;27.87;;;14.93;;
10509;SDS011;5303;53.266;10.410;2022-12-18T11:08:31;29.47;;;15.20;;
10509;SDS011;5303;53.266;10.410;2022-12-18T11:10:57;29.37;;;15.83;;
10509;SDS011;5303;53.266;10.410;2022-12-18T11:13:23;27.83;;;14.80;;
10509;SDS011;5303;53.266;10.410;2022-12-18T11:15:51;24.97;;;14.23;;
10509;SDS011;5303;53.266;10.410;2022-12-18T11:18:22;26.80;;;14.50;;
10509;SDS011;5303;53.266;10.410;2022-12-18T11:20:57;27.77;;;15.40;;
10509;SDS011;5303;53.266;10.410;2022-12-18T11:23:34;34.97;;;16.53;;
10509;SDS011;5303;53.266;10.410;2022-12-18T11:26:02;31.67;;;15.70;;
10509;SDS011;5303;53.266;10.410;2022-12-18T11:28:40;29.00;;;15.23;;
10509;SDS011;5303;53.266;10.410;2022-12-18T11:31:12;28.23;;;14.77;;
10509;SDS011;5303;53.266;10.410;2022-12-18T11:33:44;28.87;;;15.60;;
10509;SDS011;5303;53.266;10.410;2022-12-18T11:36:17;30.03;;;16.73;;
10509;SDS011;5303;53.266;10.410;2022-12-18T11:38:45;24.77;;;14.30;;
10509;SDS011;5303;53.266;10.410;2022-12-18T11:44:29;26.57;;;13.60;;
10509;SDS011;5303;53.266;10.410;2022-12-18T11:47:02;25.00;;;13.83;;
10509;SDS011;5303;53.266;10.410;2022-12-18T11:49:35;23.63;;;13.60;;
10509;SDS011;5303;53.266;10.410;2022-12-18T11:52:14;26.43;;;14.93;;
10509;SDS011;5303;53.266;10.410;2022-12-18T11:54:50;27.20;;;14.00;;
10509;SDS011;5303;53.266;10.410;2022-12-18T11:57:25;28.53;;;14.33;;
10509;SDS011;5303;53.266;10.410;2022-12-18T12:10:49;24.63;;;14.03;;
10509;SDS011;5303;53.266;10.410;2022-12-18T12:16:18;26.07;;;13.80;;
10509;SDS011;5303;53.266;10.410;2022-12-18T12:26:30;28.10;;;13.57;;
10509;SDS011;5303;53.266;10.410;2022-12-18T12:35:23;25.77;;;12.53;;
10509;SDS011;5303;53.266;10.410;2022-12-18T12:40:07;25.47;;;13.37;;
10509;SDS011;5303;53.266;10.410;2022-12-18T12:42:42;25.40;;;14.30;;
10509;SDS011;5303;53.266;10.410;2022-12-18T12:45:44;26.10;;;13.47;;
10509;SDS011;5303;53.266;10.410;2022-12-18T12:48:16;25.70;;;14.13;;
10509;SDS011;5303;53.266;10.410;2022-12-18T12:50:46;29.00;;;14.43;;
10509;SDS011;5303;53.266;10.410;2022-12-18T12:53:17;29.23;;;14.43;;
10509;SDS011;5303;53.266;10.410;2022-12-18T12:55:50;26.10;;;13.97;;
10509;SDS011;5303;53.266;10.410;2022-12-18T13:01:02;31.97;;;15.17;;
10509;SDS011;5303;53.266;10.410;2022-12-18T13:03:43;28.10;;;15.07;;
10509;SDS011;5303;53.266;10.410;2022-12-18T13:06:29;27.70;;;15.13;;
10509;SDS011;5303;53.266;10.410;2022-12-18T13:09:02;28.63;;;15.07;;
10509;SDS011;5303;53.266;10.410;2022-12-18T13:11:32;29.27;;;15.63;;
10509;SDS011;5303;53.266;10.410;2022-12-18T13:14:22;33.20;;;15.27;;
10509;SDS011;5303;53.266;10.410;2022-12-18T13:16:49;32.97;;;15.90;;
10509;SDS011;5303;53.266;10.410;2022-12-18T13:19:21;31.67;;;16.80;;
10509;SDS011;5303;53.266;10.410;2022-12-18T13:21:53;33.17;;;15.43;;
10509;SDS011;5303;53.266;10.410;2022-12-18T13:24:25;33.13;;;16.97;;
10509;SDS011;5303;53.266;10.410;2022-12-18T13:26:52;33.43;;;16.77;;
10509;SDS011;5303;53.266;10.410;2022-12-18T13:32:20;38.27;;;18.53;;
10509;SDS011;5303;53.266;10.410;2022-12-18T13:34:47;34.60;;;16.67;;
10509;SDS011;5303;53.266;10.410;2022-12-18T13:39:56;31.33;;;16.37;;
10509;SDS011;5303;53.266;10.410;2022-12-18T13:42:37;31.00;;;15.93;;
10509;SDS011;5303;53.266;10.410;2022-12-18T13:45:35;35.77;;;18.10;;
10509;SDS011;5303;53.266;10.410;2022-12-18T13:48:05;35.23;;;16.40;;
10509;SDS011;5303;53.266;10.410;2022-12-18T13:50:41;31.10;;;17.03;;
10509;SDS011;5303;53.266;10.410;2022-12-18T13:53:07;29.33;;;16.47;;
10509;SDS011;5303;53.266;10.410;2022-12-18T13:55:46;33.33;;;17.23;;
10509;SDS011;5303;53.266;10.410;2022-12-18T13:58:12;35.33;;;16.73;;
10509;SDS011;5303;53.266;10.410;2022-12-18T14:00:41;32.63;;;16.67;;
10509;SDS011;5303;53.266;10.410;2022-12-18T14:03:17;34.03;;;18.37;;
10509;SDS011;5303;53.266;10.410;2022-12-18T14:05:52;32.10;;;16.30;;
10509;SDS011;5303;53.266;10.410;2022-12-18T14:08:20;34.50;;;15.77;;
10509;SDS011;5303;53.266;10.410;2022-12-18T14:10:47;38.77;;;18.60;;
10509;SDS011;5303;53.266;10.410;2022-12-18T14:13:28;32.17;;;15.80;;
10509;SDS011;5303;53.266;10.410;2022-12-18T14:15:55;35.37;;;16.87;;
10509;SDS011;5303;53.266;10.410;2022-12-18T14:20:58;31.87;;;16.57;;
10509;SDS011;5303;53.266;10.410;2022-12-18T14:23:27;35.50;;;17.70;;
10509;SDS011;5303;53.266;10.410;2022-12-18T14:26:01;34.87;;;16.57;;
10509;SDS011;5303;53.266;10.410;2022-12-18T14:28:28;32.93;;;17.53;;
10509;SDS011;5303;53.266;10.410;2022-12-18T14:30:54;38.57;;;17.47;;
10509;SDS011;5303;53.266;10.410;2022-12-18T14:38:33;34.13;;;16.67;;
10509;SDS011;5303;53.266;10.410;2022-12-18T14:41:04;33.90;;;17.27;;
10509;SDS011;5303;53.266;10.410;2022-12-18T14:43:40;39.23;;;19.00;;
10509;SDS011;5303;53.266;10.410;2022-12-18T14:48:53;36.57;;;17.93;;
10509;SDS011;5303;53.266;10.410;2022-12-18T14:51:20;39.47;;;19.60;;
10509;SDS011;5303;53.266;10.410;2022-12-18T14:53:56;38.00;;;19.13;;
10509;SDS011;5303;53.266;10.410;2022-12-18T14:58:55;35.87;;;17.07;;
10509;SDS011;5303;53.266;10.410;2022-12-18T15:01:27;39.70;;;18.07;;
10509;SDS011;5303;53.266;10.410;2022-12-18T15:03:54;34.20;;;16.73;;
10509;SDS011;5303;53.266;10.410;2022-12-18T15:06:34;33.07;;;16.90;;
10509;SDS011;5303;53.266;10.410;2022-12-18T15:09:05;38.57;;;18.70;;
10509;SDS011;5303;53.266;10.410;2022-12-18T15:11:47;33.43;;;16.57;;
10509;SDS011;5303;53.266;10.410;2022-12-18T15:16:57;32.83;;;16.80;;
10509;SDS011;5303;53.266;10.410;2022-12-18T15:19:28;33.23;;;15.40;;
10509;SDS011;5303;53.266;10.410;2022-12-18T15:22:00;32.60;;;16.53;;
10509;SDS011;5303;53.266;10.410;2022-12-18T15:24:27;30.67;;;15.43;;
10509;SDS011;5303;53.266;10.410;2022-12-18T15:26:56;34.40;;;16.03;;
10509;SDS011;5303;53.266;10.410;2022-12-18T15:29:22;30.70;;;16.23;;
10509;SDS011;5303;53.266;10.410;2022-12-18T15:32:01;31.00;;;16.37;;
10509;SDS011;5303;53.266;10.410;2022-12-18T15:34:29;29.93;;;15.67;;
10509;SDS011;5303;53.266;10.410;2022-12-18T15:36:55;33.50;;;16.67;;
10509;SDS011;5303;53.266;10.410;2022-12-18T15:39:20;29.87;;;16.87;;
10509;SDS011;5303;53.266;10.410;2022-12-18T15:41:45;28.63;;;15.83;;
10509;SDS011;5303;53.266;10.410;2022-12-18T15:44:30;29.43;;;14.63;;
10509;SDS011;5303;53.266;10.410;2022-12-18T15:46:55;28.87;;;16.03;;
10509;SDS011;5303;53.266;10.410;2022-12-18T15:49:21;30.37;;;15.57;;
10509;SDS011;5303;53.266;10.410;2022-12-18T15:51:48;33.90;;;15.77;;
10509;SDS011;5303;53.266;10.410;2022-12-18T15:54:17;31.53;;;16.57;;
10509;SDS011;5303;53.266;10.410;2022-12-18T15:57:02;28.23;;;15.03;;
10509;SDS011;5303;53.266;10.410;2022-12-18T15:59:46;29.33;;;15.07;;
10509;SDS011;5303;53.266;10.410;2022-12-18T16:02:13;30.63;;;14.93;;
10509;SDS011;5303;53.266;10.410;2022-12-18T16:04:41;29.10;;;15.97;;
10509;SDS011;5303;53.266;10.410;2022-12-18T16:07:07;28.70;;;15.13;;
10509;SDS011;5303;53.266;10.410;2022-12-18T16:09:32;29.43;;;15.63;;
10509;SDS011;5303;53.266;10.410;2022-12-18T16:11:57;25.67;;;13.80;;
10509;SDS011;5303;53.266;10.410;2022-12-18T16:14:25;29.40;;;15.33;;
10509;SDS011;5303;53.266;10.410;2022-12-18T16:16:53;28.20;;;14.53;;